»·PEaware :: N664NT KJFK-KEWR

N664NT :: KJFK-KEWR

FLIGHT INFORMATION

Flight Status: Arrived
Operator: Privately registered:
United States
More flights under this callsign
Pilot: Anonymous 328 (328)
Aircraft: Unknown
(GA7C)
More flights by this aircraft type
Origin: KJFK Kennedy Intl
United States
Destination: KEWR Newark Intl
United States
More flights between these airports :: More routes between these airports
Route: JFK V16 DIXIE V276 RBV V249 SBJ
File this flight plan on PilotEdge
Remarks:
Altitude:
(Current/Filed)
6,000ft
Speed:
(Current/Filed)
0kts
Departed: 05-May-22 04:13 AM
Arrived: 05-May-22 04:52 AM
Distance/Time
Traveled:
18nm/0:39
Distance/Time
To Go:
Arrived

Flight Plot

Page will automatically refresh every two minutes.

Flight plan parsing failed; only flown route is shown


Map Options




Map Legend


Flown Route
Filed Route
Departure Airport
Arrival Airport
Navaid (VOR, NDB)
Fix

Horizontal Profiles

Position Reports

Time Latitude Longitude Heading Altitude Ground
Speed
05-May-22 03:49 40.650547 -73.811073 231 20ft 0kts
05-May-22 03:51 40.650547 -73.811073 231 20ft 0kts
05-May-22 03:52 40.650547 -73.811073 231 20ft 0kts
05-May-22 03:53 40.650547 -73.811073 231 20ft 0kts
05-May-22 03:54 40.650547 -73.811073 231 20ft 0kts
05-May-22 03:55 40.650547 -73.811073 231 20ft 0kts
05-May-22 03:57 40.650547 -73.811073 230 20ft 0kts
05-May-22 03:58 40.650547 -73.811073 230 20ft 0kts
05-May-22 03:59 40.650547 -73.811073 230 20ft 0kts
05-May-22 04:00 40.650547 -73.811073 230 20ft 0kts
05-May-22 04:01 40.650547 -73.811073 230 20ft 0kts
05-May-22 04:02 40.650547 -73.811073 230 20ft 0kts
05-May-22 04:03 40.650547 -73.811073 230 20ft 0kts
05-May-22 04:04 40.650547 -73.811073 230 20ft 0kts
05-May-22 04:05 40.650547 -73.811073 230 20ft 0kts
05-May-22 04:06 40.650547 -73.811073 230 20ft 0kts
05-May-22 04:07 40.649288 -73.812294 245 20ft 6kts
05-May-22 04:08 40.650143 -73.814766 275 20ft 8kts
05-May-22 04:09 40.649239 -73.815826 210 21ft 0kts
05-May-22 04:10 40.649239 -73.815826 210 21ft 0kts
05-May-22 04:10 40.649239 -73.815826 210 21ft 0kts
05-May-22 04:12 40.648487 -73.816414 202 21ft 2kts
05-May-22 04:13 40.633831 -73.792427 142 1193ft 191kts
05-May-22 04:14 40.583130 -73.747711 147 4895ft 260kts
05-May-22 04:15 40.513992 -73.749451 205 4996ft 266kts
05-May-22 04:15 40.464806 -73.797684 215 5003ft 264kts
05-May-22 04:16 40.406410 -73.855949 218 4984ft 263kts
05-May-22 04:17 40.347324 -73.915451 216 5766ft 276kts
05-May-22 04:18 40.285801 -73.977394 217 5995ft 276kts
05-May-22 04:20 40.248154 -74.069817 301 6006ft 272kts
05-May-22 04:21 40.293648 -74.149292 307 6004ft 272kts
05-May-22 04:21 40.331734 -74.215393 307 6001ft 272kts
05-May-22 04:22 40.394207 -74.253075 347 5426ft 227kts
05-May-22 04:23 40.449429 -74.269623 349 4759ft 192kts
05-May-22 04:24 40.499516 -74.273743 357 3745ft 168kts
05-May-22 04:25 40.542088 -74.260628 25 2946ft 138kts
05-May-22 04:26 40.576450 -74.238869 25 2239ft 136kts
05-May-22 04:27 40.610401 -74.217209 25 1524ft 134kts
05-May-22 04:28 40.643909 -74.195808 26 821ft 134kts
05-May-22 04:29 40.679546 -74.172707 26 1021ft 179kts
05-May-22 04:30 40.727909 -74.121925 36 2979ft 212kts
05-May-22 04:31 40.776714 -74.117867 295 3009ft 245kts
05-May-22 04:32 40.774193 -74.211891 242 2997ft 261kts
05-May-22 04:33 40.715672 -74.260612 206 3002ft 226kts
05-May-22 04:34 40.663368 -74.295746 207 3000ft 208kts
05-May-22 04:35 40.610378 -74.312531 138 3003ft 208kts
05-May-22 04:36 40.578629 -74.253082 93 2744ft 188kts
05-May-22 04:37 40.610538 -74.215439 20 1632ft 145kts
05-May-22 04:38 40.644825 -74.195145 25 804ft 132kts
05-May-22 04:39 40.679657 -74.173355 30 1009ft 140kts
05-May-22 04:40 40.711975 -74.148903 38 2710ft 132kts
05-May-22 04:41 40.751423 -74.155403 294 3052ft 201kts
05-May-22 04:42 40.745102 -74.223885 234 2993ft 190kts
05-May-22 04:43 40.698978 -74.257278 206 3002ft 187kts
05-May-22 04:44 40.652485 -74.288513 207 2781ft 185kts
05-May-22 04:45 40.606499 -74.319420 207 2002ft 184kts
05-May-22 04:46 40.566978 -74.302704 117 2008ft 184kts
05-May-22 04:47 40.574203 -74.245888 36 2005ft 185kts
05-May-22 04:48 40.615280 -74.213745 26 1473ft 138kts
05-May-22 04:49 40.648594 -74.192566 25 763ft 132kts
05-May-22 04:50 40.681629 -74.171631 25 61ft 131kts
05-May-22 04:51 40.693512 -74.164497 2 19ft 9kts
05-May-22 04:52 40.694378 -74.164543 355 19ft 0kts

Navigation Log

Ident Type
Flight plan parsing failed, navigation log unavailable